Excelsior, Minnesota
Current Conditions -  °F | °C
As of 7:59 AM on Saturday 22 Nov 2014 (Local Time) from KFCM Reporting Station
Haze Haze  
Wind Chill: 27°   Ceiling: 400
Heat Index: 35°   Visibility: 1.7mi
Dew Point: 34°   Wind: 10mph
Humidity: 96%   Direction: 200°SSW
Pressure: 29.76"   Gusts: NA
Location:  44.9°N, 93.57°W
Report Text: KFCM 221359Z 20009KT 1 3/4SM BR OVC004 02/01 A2976 RMK AO2 T00170011
Loading
Personal Weather Stations






























Interactive Weather Map New forecast layout! Learn more

10-Day Weather Forecast

Advertisements
Track Severe Weather on mobile